Time;durP1;ratioP1;P1;durP2;ratioP2;P2;SDS_P1;SDS_P2;PMS_P1;PMS_P2;Temp;Humidity;BMP_temperature;BMP_pressure;BME280_temperature;BME280_humidity;BME280_pressure;Samples;Min_cycle;Max_cycle;Signal;HPM_P1;HPM_P2
2022/03/28 00:01:14;;;;;;;2.70;1.33;;;10.50;1.00;;;;;;5035283;28;20882;-59
2022/03/28 00:03:41;;;;;;;4.22;1.60;;;10.40;1.00;;;;;;5033856;28;20541;-59
2022/03/28 00:06:09;;;;;;;4.82;1.80;;;10.40;1.00;;;;;;5034783;28;20514;-58
2022/03/28 00:08:36;;;;;;;3.73;2.03;;;10.40;1.00;;;;;;5033823;28;20445;-59
2022/03/28 00:11:06;;;;;;;2.88;1.60;;;10.40;1.00;;;;;;5035049;28;20482;-58
2022/03/28 00:13:33;;;;;;;3.72;1.63;;;10.40;1.00;;;;;;5034015;28;20434;-59
2022/03/28 00:16:00;;;;;;;4.10;1.40;;;10.30;1.00;;;;;;5035196;28;20430;-60
2022/03/28 00:18:27;;;;;;;3.72;1.70;;;10.30;1.00;;;;;;5034366;28;20517;-59
2022/03/28 00:20:55;;;;;;;2.65;1.45;;;10.30;1.00;;;;;;5035021;28;20553;-58
2022/03/28 00:23:22;;;;;;;3.10;1.80;;;10.20;1.00;;;;;;5034407;28;20532;-58
2022/03/28 00:25:49;;;;;;;4.30;1.88;;;10.20;1.00;;;;;;5034882;28;20511;-58
2022/03/28 00:28:17;;;;;;;5.43;1.95;;;10.10;1.00;;;;;;5034332;28;20479;-58
2022/03/28 00:30:46;;;;;;;2.80;1.60;;;10.10;1.00;;;;;;5034823;28;20489;-59
2022/03/28 00:33:12;;;;;;;5.10;1.60;;;10.00;1.00;;;;;;5034154;28;20459;-58
2022/03/28 00:35:40;;;;;;;4.00;1.60;;;10.00;1.00;;;;;;5034728;28;20834;-58
2022/03/28 00:38:07;;;;;;;4.15;1.90;;;9.90;1.00;;;;;;5034349;28;20463;-61
2022/03/28 00:40:35;;;;;;;3.40;1.50;;;9.90;1.00;;;;;;5034994;28;20422;-58
2022/03/28 00:43:05;;;;;;;3.00;1.63;;;9.90;1.00;;;;;;5036849;28;20514;-60
2022/03/28 00:45:34;;;;;;;3.83;1.85;;;9.80;1.00;;;;;;5038504;28;20434;-58
2022/03/28 00:48:02;;;;;;;3.33;1.63;;;9.80;1.00;;;;;;5037210;28;20514;-61
2022/03/28 00:50:29;;;;;;;2.90;1.48;;;9.80;1.00;;;;;;5038636;28;20419;-58
2022/03/28 00:52:57;;;;;;;4.67;1.70;;;9.80;1.00;;;;;;5037702;28;20457;-57
2022/03/28 00:55:24;;;;;;;5.63;2.10;;;9.80;1.00;;;;;;5038168;28;20509;-58
2022/03/28 00:57:51;;;;;;;4.35;1.60;;;9.80;1.00;;;;;;5038246;28;20428;-61
2022/03/28 01:00:19;;;;;;;5.78;2.50;;;9.70;1.00;;;;;;5038342;28;20422;-60
2022/03/28 01:02:48;;;;;;;4.03;1.90;;;9.60;1.00;;;;;;5036846;28;20606;-60
2022/03/28 01:05:15;;;;;;;5.00;2.28;;;9.60;1.00;;;;;;5037587;28;20533;-59
2022/03/28 01:07:43;;;;;;;5.22;1.70;;;9.50;1.00;;;;;;5038405;28;20423;-60
2022/03/28 01:10:11;;;;;;;3.25;1.50;;;9.50;1.00;;;;;;5036968;28;20470;-60
2022/03/28 01:12:42;;;;;;;4.80;1.70;;;9.40;1.00;;;;;;5037754;28;20431;-59
2022/03/28 01:15:10;;;;;;;4.85;1.90;;;9.40;1.00;;;;;;5036276;28;20808;-60
2022/03/28 01:20:27;;;;;;;2.72;1.42;;;9.40;1.00;;;;;;5037166;28;20850;-59
2022/03/28 01:22:55;;;;;;;5.80;1.73;;;9.40;1.00;;;;;;5035784;28;20526;-58
2022/03/28 01:25:24;;;;;;;4.85;1.80;;;9.40;1.00;;;;;;5036910;28;20458;-59
2022/03/28 01:27:53;;;;;;;3.42;1.70;;;9.40;1.00;;;;;;5037170;28;20513;-53
2022/03/28 01:30:21;;;;;;;5.50;2.00;;;9.40;1.00;;;;;;5037718;28;20430;-60
2022/03/28 01:32:48;;;;;;;4.65;1.60;;;9.30;1.00;;;;;;5037363;28;20423;-60
2022/03/28 01:35:26;;;;;;;3.53;2.10;;;9.30;1.00;;;;;;5037386;28;20451;-60
2022/03/28 01:37:53;;;;;;;3.70;2.00;;;9.30;1.00;;;;;;5036390;28;20509;-59
2022/03/28 01:40:21;;;;;;;3.40;1.70;;;9.20;1.00;;;;;;5037509;28;20462;-59
2022/03/28 01:42:49;;;;;;;3.30;1.73;;;9.30;1.00;;;;;;5037997;28;20522;-59
2022/03/28 01:45:17;;;;;;;3.80;1.80;;;9.30;1.00;;;;;;5036834;28;20435;-59
2022/03/28 01:47:44;;;;;;;4.72;1.50;;;9.30;1.00;;;;;;5036566;28;20819;-60
2022/03/28 01:50:11;;;;;;;4.22;1.88;;;9.30;1.00;;;;;;5037595;28;20541;-60
2022/03/28 01:52:38;;;;;;;4.17;1.83;;;9.30;1.00;;;;;;5036981;28;20832;-60
2022/03/28 01:55:06;;;;;;;3.00;1.70;;;9.30;1.00;;;;;;5037144;28;20497;-60
2022/03/28 01:57:34;;;;;;;3.73;1.80;;;9.30;1.00;;;;;;5036739;28;20489;-59
2022/03/28 02:00:01;;;;;;;4.38;1.80;;;9.30;1.00;;;;;;5036915;28;20496;-59
2022/03/28 02:02:29;;;;;;;5.60;2.10;;;9.30;1.00;;;;;;5037026;28;20869;-60
2022/03/28 02:04:55;;;;;;;3.80;1.50;;;9.20;1.00;;;;;;5037208;28;20426;-59
2022/03/28 02:07:22;;;;;;;3.35;1.60;;;9.20;1.00;;;;;;5035630;28;20451;-59
2022/03/28 02:09:49;;;;;;;3.67;1.70;;;9.20;1.00;;;;;;5034671;28;20427;-59
2022/03/28 02:12:16;;;;;;;4.77;1.73;;;9.20;1.00;;;;;;5035573;28;20493;-59
2022/03/28 02:14:44;;;;;;;6.35;1.60;;;9.20;1.00;;;;;;5035017;28;20530;-60
2022/03/28 02:17:11;;;;;;;4.17;1.70;;;9.20;1.00;;;;;;5036007;28;20443;-60
2022/03/28 02:19:38;;;;;;;3.17;1.38;;;9.20;1.00;;;;;;5035455;28;20427;-59
2022/03/28 02:22:05;;;;;;;4.57;1.90;;;9.20;1.00;;;;;;5036280;28;20882;-60
2022/03/28 02:24:32;;;;;;;4.93;1.50;;;9.20;1.00;;;;;;5035366;28;20432;-59
2022/03/28 02:26:59;;;;;;;4.03;1.90;;;9.20;1.00;;;;;;5036915;28;20564;-59
2022/03/28 02:29:26;;;;;;;4.93;2.00;;;9.30;1.00;;;;;;5035902;28;20517;-59
2022/03/28 02:31:54;;;;;;;3.88;1.70;;;9.20;1.00;;;;;;5036268;28;20513;-60
2022/03/28 02:34:21;;;;;;;3.10;1.40;;;9.20;1.00;;;;;;5035877;28;20462;-60
2022/03/28 02:36:48;;;;;;;3.70;1.70;;;9.20;1.00;;;;;;5036698;28;20866;-59
2022/03/28 02:39:15;;;;;;;6.35;1.63;;;9.10;1.00;;;;;;5037188;28;20434;-59
2022/03/28 02:41:42;;;;;;;3.97;1.70;;;9.10;1.00;;;;;;5035082;28;20526;-59
2022/03/28 02:44:09;;;;;;;3.22;1.85;;;9.10;1.00;;;;;;5036482;28;20423;-59
2022/03/28 02:46:36;;;;;;;4.40;1.70;;;9.10;1.00;;;;;;5035705;28;20435;-60
2022/03/28 02:49:05;;;;;;;4.65;1.50;;;9.10;1.00;;;;;;5035998;28;20463;-59
2022/03/28 02:51:31;;;;;;;5.00;1.75;;;9.10;1.00;;;;;;5035329;28;20435;-59
2022/03/28 02:53:58;;;;;;;5.90;1.73;;;9.10;1.00;;;;;;5035963;28;20505;-59
2022/03/28 02:56:25;;;;;;;5.27;1.60;;;9.10;1.00;;;;;;5034873;28;20445;-59
2022/03/28 02:58:52;;;;;;;3.40;1.90;;;9.10;1.00;;;;;;5035403;28;20819;-59
2022/03/28 03:01:19;;;;;;;3.47;1.70;;;9.10;1.00;;;;;;5034105;28;20796;-59
2022/03/28 03:03:46;;;;;;;5.80;2.10;;;9.10;1.00;;;;;;5034366;28;20799;-60
2022/03/28 03:06:14;;;;;;;3.17;1.90;;;9.10;1.00;;;;;;5033706;28;20901;-59
2022/03/28 03:08:42;;;;;;;4.60;1.60;;;9.10;1.00;;;;;;5034363;28;20553;-59
2022/03/28 03:11:09;;;;;;;5.90;2.00;;;9.10;1.00;;;;;;5033265;28;20496;-58
2022/03/28 03:13:36;;;;;;;2.92;1.70;;;9.10;1.00;;;;;;5035064;28;20442;-58
2022/03/28 03:16:04;;;;;;;4.40;1.90;;;9.10;1.00;;;;;;5034458;28;20453;-59
2022/03/28 03:18:31;;;;;;;8.20;1.60;;;9.10;1.00;;;;;;5034744;28;20513;-59
2022/03/28 03:20:58;;;;;;;3.70;1.90;;;9.10;1.00;;;;;;5035034;28;20430;-58
2022/03/28 03:23:27;;;;;;;5.00;1.90;;;9.10;1.00;;;;;;5035851;28;20430;-58
2022/03/28 03:25:54;;;;;;;4.25;1.73;;;9.10;1.00;;;;;;5034667;28;20592;-60
2022/03/28 03:28:21;;;;;;;6.10;2.08;;;9.10;1.00;;;;;;5035473;28;20505;-58
2022/03/28 03:30:48;;;;;;;4.28;1.70;;;9.00;1.00;;;;;;5035169;28;20537;-58
2022/03/28 03:33:15;;;;;;;4.10;1.50;;;9.00;1.00;;;;;;5035425;28;20521;-58
2022/03/28 03:35:42;;;;;;;6.35;1.70;;;9.00;1.00;;;;;;5034429;28;20803;-58
2022/03/28 03:38:10;;;;;;;3.67;2.10;;;9.00;1.00;;;;;;5034481;28;20438;-59
2022/03/28 03:40:38;;;;;;;4.47;2.10;;;9.00;1.00;;;;;;5034219;28;20427;-58
2022/03/28 03:43:05;;;;;;;6.90;2.05;;;9.00;1.00;;;;;;5035173;28;20510;-59
2022/03/28 03:45:32;;;;;;;3.90;1.80;;;9.00;1.00;;;;;;5033687;28;20879;-59
2022/03/28 03:47:59;;;;;;;4.45;1.70;;;8.90;1.00;;;;;;5035705;28;20435;-58
2022/03/28 03:50:26;;;;;;;4.33;1.73;;;8.90;1.00;;;;;;5034269;28;20863;-58
2022/03/28 03:52:54;;;;;;;3.67;1.95;;;8.90;1.00;;;;;;5034784;28;20480;-58
2022/03/28 03:55:21;;;;;;;3.87;1.70;;;8.80;1.00;;;;;;5033950;28;20462;-58
2022/03/28 03:57:49;;;;;;;3.70;1.73;;;8.80;1.00;;;;;;5034085;28;20438;-58
2022/03/28 04:00:17;;;;;;;5.00;2.13;;;8.80;1.00;;;;;;5033209;28;20790;-58
2022/03/28 04:02:44;;;;;;;5.20;2.30;;;8.70;1.00;;;;;;5034204;28;20920;-59
2022/03/28 04:05:12;;;;;;;5.22;1.83;;;8.70;1.00;;;;;;5033720;28;21057;-58
2022/03/28 04:07:39;;;;;;;5.13;2.03;;;8.70;1.00;;;;;;5034890;28;20549;-58
2022/03/28 04:10:07;;;;;;;3.97;2.03;;;8.70;1.00;;;;;;5033230;28;20519;-59
2022/03/28 04:12:34;;;;;;;4.57;1.80;;;8.60;1.00;;;;;;5034361;28;20441;-59
2022/03/28 04:15:03;;;;;;;4.38;1.92;;;8.50;1.00;;;;;;5034046;28;20430;-58
2022/03/28 04:17:30;;;;;;;5.50;3.00;;;8.50;1.00;;;;;;5037968;28;20493;-58
2022/03/28 04:19:57;;;;;;;4.07;2.03;;;8.50;1.00;;;;;;5037437;28;20846;-58
2022/03/28 04:22:24;;;;;;;4.38;2.03;;;8.50;1.00;;;;;;5038979;28;20415;-58
2022/03/28 04:24:51;;;;;;;4.22;1.95;;;8.50;1.00;;;;;;5037113;28;20781;-56
2022/03/28 04:27:18;;;;;;;4.20;1.98;;;8.50;1.00;;;;;;5039006;28;20510;-57
2022/03/28 04:29:45;;;;;;;5.50;2.17;;;8.50;1.00;;;;;;5038735;28;20894;-59
2022/03/28 04:32:13;;;;;;;4.85;1.95;;;8.50;1.00;;;;;;5037857;28;20466;-59
2022/03/28 04:34:40;;;;;;;6.90;2.00;;;8.50;1.00;;;;;;5038939;28;20434;-59
2022/03/28 04:37:07;;;;;;;3.92;1.80;;;8.40;1.00;;;;;;5037610;28;20474;-59
2022/03/28 04:39:34;;;;;;;4.15;2.10;;;8.40;1.00;;;;;;5038446;28;20886;-59
2022/03/28 04:42:01;;;;;;;4.63;2.00;;;8.30;1.00;;;;;;5038103;28;20786;-58
2022/03/28 04:44:27;;;;;;;6.43;1.98;;;8.20;1.00;;;;;;5038645;28;20507;-59
2022/03/28 04:46:54;;;;;;;4.13;2.00;;;8.20;1.00;;;;;;5037237;28;20494;-59
2022/03/28 04:49:23;;;;;;;4.82;1.80;;;8.10;1.00;;;;;;5037862;28;20432;-59
2022/03/28 04:51:49;;;;;;;5.90;1.73;;;8.20;1.00;;;;;;5038157;28;20434;-59
2022/03/28 04:54:16;;;;;;;5.45;2.50;;;8.20;1.00;;;;;;5038207;28;20843;-59
2022/03/28 04:56:43;;;;;;;3.60;2.17;;;8.20;1.00;;;;;;5037295;28;20797;-59
2022/03/28 04:59:11;;;;;;;4.95;1.95;;;8.10;1.00;;;;;;5036286;28;20976;-59
2022/03/28 05:01:38;;;;;;;6.67;1.87;;;8.10;1.00;;;;;;5036898;28;20427;-59
2022/03/28 05:04:05;;;;;;;6.33;2.10;;;8.10;1.00;;;;;;5036423;28;20808;-59
2022/03/28 05:06:33;;;;;;;5.78;2.00;;;8.00;1.00;;;;;;5037215;28;20508;-58
2022/03/28 05:09:00;;;;;;;7.05;1.80;;;8.10;1.00;;;;;;5035629;28;20521;-58
2022/03/28 05:11:28;;;;;;;5.72;2.00;;;8.20;1.00;;;;;;5037281;28;20518;-59
2022/03/28 05:13:55;;;;;;;6.10;2.00;;;8.20;1.00;;;;;;5035628;28;20435;-58
2022/03/28 05:16:22;;;;;;;5.53;2.07;;;8.10;1.00;;;;;;5036796;28;20801;-59
2022/03/28 05:18:48;;;;;;;5.30;2.53;;;8.10;1.00;;;;;;5035465;28;20438;-59
2022/03/28 05:21:15;;;;;;;4.22;1.95;;;8.10;1.00;;;;;;5036239;28;20522;-58
2022/03/28 05:23:44;;;;;;;7.95;2.30;;;8.10;1.00;;;;;;5035238;28;20746;-59
2022/03/28 05:26:11;;;;;;;7.95;2.17;;;8.20;1.00;;;;;;5036136;28;20488;-59
2022/03/28 05:28:37;;;;;;;5.67;2.30;;;8.20;1.00;;;;;;5035080;28;20864;-59
2022/03/28 05:31:05;;;;;;;5.10;2.47;;;8.20;1.00;;;;;;5037231;28;20517;-59
2022/03/28 05:33:32;;;;;;;6.15;2.10;;;8.20;1.00;;;;;;5035115;28;20442;-59
2022/03/28 05:35:59;;;;;;;4.43;2.30;;;8.20;1.00;;;;;;5034648;28;20530;-59
2022/03/28 05:38:27;;;;;;;6.07;2.30;;;8.20;1.00;;;;;;5034279;28;20446;-59
2022/03/28 05:40:56;;;;;;;5.83;1.90;;;8.20;1.00;;;;;;5036090;28;20783;-59
2022/03/28 05:43:23;;;;;;;5.28;2.20;;;8.10;1.00;;;;;;5035312;28;20431;-59
2022/03/28 05:45:52;;;;;;;3.90;2.20;;;8.00;1.00;;;;;;5035219;28;20834;-58
2022/03/28 05:48:19;;;;;;;5.50;2.58;;;8.00;1.00;;;;;;5032495;28;20427;-58
2022/03/28 05:50:46;;;;;;;6.32;2.35;;;7.90;1.00;;;;;;5033351;28;20429;-59
2022/03/28 05:53:13;;;;;;;6.95;2.50;;;7.80;1.00;;;;;;5033180;28;20914;-59
2022/03/28 05:55:40;;;;;;;5.35;2.55;;;7.80;1.00;;;;;;5035384;28;20430;-56
2022/03/28 05:58:09;;;;;;;5.30;2.22;;;7.80;1.00;;;;;;5033090;28;20898;-57
2022/03/28 06:00:36;;;;;;;7.03;2.72;;;7.80;1.00;;;;;;5034556;28;20430;-55
2022/03/28 06:03:04;;;;;;;7.07;2.40;;;7.90;1.00;;;;;;5033186;28;20862;-55
2022/03/28 06:05:31;;;;;;;6.30;2.60;;;7.90;1.00;;;;;;5034780;28;20429;-53
2022/03/28 06:07:58;;;;;;;7.72;2.10;;;8.00;1.00;;;;;;5033786;28;20811;-55
2022/03/28 06:10:25;;;;;;;4.90;2.10;;;8.10;1.00;;;;;;5034724;28;20451;-54
2022/03/28 06:12:52;;;;;;;5.47;2.20;;;8.10;1.00;;;;;;5029343;28;20529;-53
2022/03/28 06:15:21;;;;;;;5.00;2.40;;;8.20;1.00;;;;;;5034636;28;20419;-56
2022/03/28 06:17:48;;;;;;;4.80;2.30;;;8.30;1.00;;;;;;5032480;28;20872;-53
2022/03/28 06:20:15;;;;;;;7.05;2.63;;;8.50;1.00;;;;;;5030234;28;20522;-56
2022/03/28 06:22:42;;;;;;;5.53;2.15;;;8.70;1.00;;;;;;5013880;28;20508;-52
2022/03/28 06:25:09;;;;;;;4.20;2.55;;;8.80;1.00;;;;;;5031279;28;20837;-55
2022/03/28 06:27:40;;;;;;;6.47;3.70;;;9.00;1.00;;;;;;5029863;28;20527;-55
2022/03/28 06:30:09;;;;;;;6.05;3.13;;;9.00;1.00;;;;;;5029309;28;20442;-56
2022/03/28 06:32:37;;;;;;;5.28;2.40;;;9.00;1.00;;;;;;5030655;28;20426;-55
2022/03/28 06:35:06;;;;;;;5.43;2.83;;;8.90;1.00;;;;;;5029135;28;20464;-54
2022/03/28 06:37:34;;;;;;;7.55;2.88;;;8.90;1.00;;;;;;5031119;28;20437;-56
2022/03/28 06:40:03;;;;;;;6.63;3.25;;;8.80;1.00;;;;;;5025638;28;20461;-59
2022/03/28 06:42:30;;;;;;;5.73;2.67;;;8.90;1.00;;;;;;5022687;28;20580;-57
2022/03/28 06:44:57;;;;;;;6.78;2.30;;;9.00;1.00;;;;;;5027440;28;20545;-56
2022/03/28 06:47:24;;;;;;;8.32;3.75;;;9.10;1.00;;;;;;5028004;28;20473;-55
2022/03/28 06:49:52;;;;;;;7.28;3.25;;;9.30;1.00;;;;;;5030533;28;20980;-58
2022/03/28 06:52:19;;;;;;;7.85;3.90;;;9.40;1.00;;;;;;5029261;28;20613;-58
2022/03/28 06:54:46;;;;;;;8.23;3.05;;;9.40;1.00;;;;;;5028207;28;20565;-58
2022/03/28 06:57:13;;;;;;;8.52;3.40;;;9.40;1.00;;;;;;5032898;28;20518;-58
2022/03/28 06:59:40;;;;;;;6.90;3.43;;;9.30;1.00;;;;;;5028238;28;20439;-57
2022/03/28 07:02:08;;;;;;;5.53;2.72;;;9.40;1.00;;;;;;5029977;28;20492;-57
2022/03/28 07:04:35;;;;;;;8.32;2.65;;;9.30;1.00;;;;;;5029927;28;20863;-56
2022/03/28 07:07:03;;;;;;;8.45;3.10;;;9.30;1.00;;;;;;5030450;28;20458;-58
2022/03/28 07:09:30;;;;;;;5.47;3.17;;;9.30;1.00;;;;;;5027305;28;20534;-60
2022/03/28 07:11:58;;;;;;;5.57;3.13;;;9.30;1.00;;;;;;5031383;28;20557;-58
2022/03/28 07:14:24;;;;;;;9.88;3.80;;;9.40;1.00;;;;;;5028691;28;20778;-58
2022/03/28 07:16:52;;;;;;;5.60;2.97;;;9.50;1.00;;;;;;5033501;28;20885;-60
2022/03/28 07:19:19;;;;;;;7.15;3.28;;;9.50;1.00;;;;;;5033395;28;20446;-59
2022/03/28 07:21:46;;;;;;;5.82;3.85;;;9.70;1.00;;;;;;5033463;28;20514;-59
2022/03/28 07:24:14;;;;;;;7.20;3.60;;;9.80;1.00;;;;;;5034049;28;20427;-60
2022/03/28 07:26:44;;;;;;;9.00;4.18;;;9.80;1.00;;;;;;5032059;28;20435;-59
2022/03/28 07:29:11;;;;;;;7.13;4.22;;;9.90;1.00;;;;;;5029852;28;20463;-59
2022/03/28 07:31:39;;;;;;;10.32;4.40;;;10.00;1.00;;;;;;5031862;28;20427;-59
2022/03/28 07:36:51;;;;;;;7.03;3.70;;;10.20;1.00;;;;;;5022225;28;20681;-59
2022/03/28 07:39:20;;;;;;;7.07;4.43;;;10.40;1.00;;;;;;5024866;28;20462;-53
2022/03/28 07:41:47;;;;;;;10.23;4.20;;;10.50;1.00;;;;;;5026203;28;20750;-53
2022/03/28 07:44:14;;;;;;;7.22;3.63;;;10.60;1.00;;;;;;5028461;28;20484;-55
2022/03/28 07:46:41;;;;;;;5.57;2.53;;;10.70;1.00;;;;;;5012367;28;20244;-52
2022/03/28 07:49:08;;;;;;;8.63;2.83;;;10.90;1.00;;;;;;5028094;28;20535;-54
2022/03/28 07:51:35;;;;;;;4.30;2.73;;;11.00;1.00;;;;;;5030623;28;20579;-54
2022/03/28 07:54:02;;;;;;;10.37;4.83;;;11.20;1.00;;;;;;5030236;28;20959;-55
2022/03/28 07:56:31;;;;;;;10.50;3.90;;;11.30;1.00;;;;;;5033102;28;20510;-51
2022/03/28 07:58:58;;;;;;;10.63;3.17;;;11.40;1.00;;;;;;5031059;28;20477;-57
2022/03/28 08:01:25;;;;;;;10.07;3.73;;;11.50;1.00;;;;;;5026759;28;20449;-54
2022/03/28 08:03:53;;;;;;;6.73;3.37;;;11.50;1.00;;;;;;5022254;28;20559;-54
2022/03/28 08:06:20;;;;;;;6.33;2.30;;;11.70;1.00;;;;;;5028744;28;20469;-56
2022/03/28 08:08:48;;;;;;;11.00;3.47;;;11.80;1.00;;;;;;5033097;28;20444;-61
2022/03/28 08:11:15;;;;;;;8.20;3.33;;;12.00;1.00;;;;;;5032255;28;20467;-54
2022/03/28 08:13:43;;;;;;;5.53;2.97;;;12.10;1.00;;;;;;5034498;28;20520;-54
2022/03/28 08:16:10;;;;;;;6.63;3.13;;;12.30;1.00;;;;;;5030787;28;20456;-54
2022/03/28 08:18:39;;;;;;;3.83;2.90;;;12.40;1.00;;;;;;5031445;28;20561;-54
2022/03/28 08:21:06;;;;;;;8.23;3.93;;;12.50;1.00;;;;;;5031277;28;20456;-55
2022/03/28 08:23:33;;;;;;;8.20;3.63;;;12.60;1.00;;;;;;5029214;28;20452;-55
2022/03/28 08:26:00;;;;;;;7.83;3.60;;;12.70;1.00;;;;;;5032018;28;20947;-55
2022/03/28 08:28:27;;;;;;;4.83;2.60;;;12.80;1.00;;;;;;5026678;28;20883;-54
2022/03/28 08:30:55;;;;;;;10.73;4.00;;;12.90;1.00;;;;;;5018771;28;20479;-55
2022/03/28 08:33:22;;;;;;;7.77;3.23;;;13.00;1.00;;;;;;5031188;28;20971;-53
2022/03/28 08:35:49;;;;;;;11.83;4.20;;;13.10;1.00;;;;;;5031199;28;20462;-55
2022/03/28 08:38:16;;;;;;;4.23;2.10;;;13.20;1.00;;;;;;5030372;28;20573;-53
2022/03/28 08:40:44;;;;;;;6.80;4.00;;;13.30;1.00;;;;;;5030645;28;20452;-56
2022/03/28 08:43:11;;;;;;;5.27;2.90;;;13.40;1.00;;;;;;5014102;28;21001;-53
2022/03/28 08:45:38;;;;;;;6.10;2.57;;;13.50;1.00;;;;;;5033134;28;20514;-53
2022/03/28 08:48:07;;;;;;;8.20;3.87;;;13.60;1.00;;;;;;5033988;28;20449;-53
2022/03/28 08:50:35;;;;;;;5.93;2.80;;;13.70;1.00;;;;;;5032627;28;20892;-50
2022/03/28 08:53:02;;;;;;;10.33;2.80;;;13.90;1.00;;;;;;5033597;28;20473;-58
2022/03/28 08:55:28;;;;;;;8.90;3.60;;;14.00;1.00;;;;;;5030381;28;20503;-55
2022/03/28 08:57:55;;;;;;;6.97;3.10;;;14.20;1.00;;;;;;5033051;28;20445;-52
2022/03/28 09:00:22;;;;;;;6.40;2.60;;;14.30;1.00;;;;;;5030914;28;20958;-54
2022/03/28 09:02:50;;;;;;;10.67;3.00;;;14.40;1.00;;;;;;5033133;28;20506;-55
2022/03/28 09:05:28;;;;;;;9.23;2.67;;;14.50;1.00;;;;;;5017144;28;20775;-55
2022/03/28 09:07:55;;;;;;;7.03;2.67;;;14.60;1.00;;;;;;5021786;28;20487;-53
2022/03/28 09:10:22;;;;;;;11.00;2.67;;;14.60;1.00;;;;;;5030628;28;20468;-55
2022/03/28 09:13:00;;;;;;;7.73;3.70;;;14.80;1.00;;;;;;5036131;28;20483;-56
2022/03/28 09:15:41;;;;;;;11.63;4.07;;;14.90;99.90;;;;;;5035871;28;20496;-57
2022/03/28 09:18:08;;;;;;;8.10;3.97;;;14.90;99.90;;;;;;5045732;28;20993;-51
2022/03/28 09:20:37;;;;;;;5.73;3.80;;;15.00;99.90;;;;;;5041009;28;20551;-53
2022/03/28 09:23:35;;;;;;;6.10;3.40;;;15.10;99.90;;;;;;5040114;28;20454;-52
2022/03/28 09:26:11;;;;;;;10.75;4.85;;;15.30;99.90;;;;;;5034481;28;21083;-51
2022/03/28 09:28:46;;;;;;;12.63;4.07;;;15.30;99.90;;;;;;5036463;28;20403;-54
2022/03/28 09:31:30;;;;;;;7.17;2.40;;;15.40;99.90;;;;;;5034219;28;20851;-55
2022/03/28 09:34:03;;;;;;;7.57;3.77;;;15.50;99.90;;;;;;5026914;28;20448;-56
2022/03/28 09:36:41;;;;;;;9.40;4.33;;;15.50;99.90;;;;;;5024504;28;20527;-56
2022/03/28 09:39:10;;;;;;;5.27;3.50;;;15.80;99.90;;;;;;5027620;28;20515;-54
2022/03/28 09:41:37;;;;;;;12.20;4.40;;;16.00;99.90;;;;;;5024483;28;20455;-57
2022/03/28 09:44:05;;;;;;;7.17;3.97;;;16.10;99.90;;;;;;5032357;28;20479;-57
2022/03/28 09:46:34;;;;;;;8.50;4.13;;;16.30;99.90;;;;;;5016541;28;20552;-48
2022/03/28 09:49:02;;;;;;;7.17;2.87;;;16.40;99.90;;;;;;5033460;28;20440;-53
2022/03/28 09:51:30;;;;;;;6.87;3.37;;;16.40;99.90;;;;;;5034089;28;20919;-53
2022/03/28 09:53:59;;;;;;;8.10;3.53;;;16.50;99.90;;;;;;5025613;28;20468;-55
2022/03/28 09:56:27;;;;;;;9.53;4.37;;;16.60;99.90;;;;;;5031638;28;20928;-54
2022/03/28 09:58:59;;;;;;;9.63;3.73;;;16.60;99.90;;;;;;5020713;28;20585;-56
2022/03/28 10:01:30;;;;;;;16.73;3.77;;;16.70;99.90;;;;;;5023052;28;20559;-54
2022/03/28 10:04:01;;;;;;;9.57;4.00;;;16.90;99.90;;;;;;5017205;28;20550;-54
2022/03/28 10:06:28;;;;;;;9.63;4.13;;;17.00;99.90;;;;;;5025966;28;20455;-55
2022/03/28 10:08:57;;;;;;;9.85;4.97;;;17.10;99.90;;;;;;5032952;28;20437;-53
2022/03/28 10:11:27;;;;;;;8.57;4.40;;;17.40;99.90;;;;;;5027061;28;20193;-54
2022/03/28 10:13:54;;;;;;;8.33;4.50;;;17.70;99.90;;;;;;5037555;28;20469;-54
2022/03/28 10:16:21;;;;;;;8.80;3.87;;;18.00;99.90;;;;;;5036196;28;20436;-53
2022/03/28 10:18:50;;;;;;;8.90;3.87;;;18.20;99.90;;;;;;5031689;28;20562;-55
2022/03/28 10:21:20;;;;;;;13.53;3.57;;;18.40;99.90;;;;;;5027903;28;20937;-54
2022/03/28 10:23:53;;;;;;;10.47;3.43;;;18.70;99.90;;;;;;5031350;28;20451;-50
2022/03/28 10:26:24;;;;;;;7.05;5.07;;;18.90;99.90;;;;;;5030537;28;20449;-54
2022/03/28 10:29:07;;;;;;;6.77;3.70;;;19.20;99.90;;;;;;5031746;28;20217;-53
2022/03/28 10:31:35;;;;;;;8.67;4.10;;;19.40;99.90;;;;;;5029058;28;21036;-53
2022/03/28 10:34:03;;;;;;;9.50;4.47;;;19.40;99.90;;;;;;5028638;28;20483;-54
2022/03/28 10:36:32;;;;;;;6.87;2.93;;;19.40;99.90;;;;;;5028252;28;20460;-56
2022/03/28 10:39:33;;;;;;;7.27;4.73;;;19.50;99.90;;;;;;5028508;28;20515;-56
2022/03/28 10:42:08;;;;;;;8.50;5.03;;;19.80;99.90;;;;;;5024348;28;20532;-57
2022/03/28 10:44:58;;;;;;;11.00;5.63;;;20.00;99.90;;;;;;5019686;28;20539;-54
2022/03/28 10:47:41;;;;;;;9.80;5.77;;;20.30;99.90;;;;;;5022943;28;20449;-54
2022/03/28 10:50:10;;;;;;;9.90;5.43;;;20.40;99.90;;;;;;5022603;28;20523;-56
2022/03/28 10:52:37;;;;;;;7.43;4.27;;;20.50;99.90;;;;;;5026498;28;20702;-57
2022/03/28 10:55:08;;;;;;;8.80;5.03;;;20.50;99.90;;;;;;5019942;28;20452;-54
2022/03/28 10:57:36;;;;;;;8.53;5.07;;;20.70;99.90;;;;;;5025549;28;20477;-55
2022/03/28 11:00:09;;;;;;;11.47;4.97;;;20.80;99.90;;;;;;5031599;28;20887;-52
2022/03/28 11:02:37;;;;;;;8.00;4.73;;;20.90;99.90;;;;;;5032388;28;20567;-54
2022/03/28 11:05:08;;;;;;;9.90;5.37;;;20.80;99.90;;;;;;5032446;28;20460;-59
2022/03/28 11:07:36;;;;;;;6.57;3.37;;;20.70;99.90;;;;;;5026132;28;20463;-55
2022/03/28 11:10:06;;;;;;;12.97;3.90;;;20.80;99.90;;;;;;5032772;28;20764;-57
2022/03/28 11:12:37;;;;;;;11.97;3.97;;;21.20;99.90;;;;;;5027407;28;20456;-56
2022/03/28 11:15:13;;;;;;;8.60;3.73;;;21.40;99.90;;;;;;5032725;28;20826;-56
2022/03/28 11:17:55;;;;;;;6.73;3.23;;;21.60;99.90;;;;;;5031173;28;20891;-55
2022/03/28 11:20:23;;;;;;;6.00;3.10;;;21.80;99.90;;;;;;5027138;28;20502;-53
2022/03/28 11:22:58;;;;;;;7.87;3.60;;;21.90;99.90;;;;;;5030632;28;20494;-53
2022/03/28 11:25:46;;;;;;;6.63;3.87;;;22.00;99.90;;;;;;5027313;28;20756;-59
2022/03/28 11:28:28;;;;;;;7.53;3.47;;;22.00;99.90;;;;;;5027288;28;20648;-55
2022/03/28 11:31:03;;;;;;;8.77;4.53;;;22.00;99.90;;;;;;5026453;28;20444;-56
2022/03/28 11:33:40;;;;;;;9.03;4.60;;;22.20;99.90;;;;;;5032216;28;20440;-54
2022/03/28 11:36:13;;;;;;;6.90;3.47;;;22.40;99.90;;;;;;5028380;28;20567;-56
2022/03/28 11:38:42;;;;;;;7.97;3.07;;;22.50;99.90;;;;;;5029613;28;20938;-57
2022/03/28 11:41:12;;;;;;;8.97;4.13;;;22.60;99.90;;;;;;5031185;28;20555;-55
2022/03/28 11:43:40;;;;;;;8.77;3.90;;;22.80;99.90;;;;;;5033051;28;20907;-56
2022/03/28 11:46:14;;;;;;;6.93;3.37;;;22.80;99.90;;;;;;5028283;28;20457;-57
2022/03/28 11:48:54;;;;;;;8.23;3.60;;;22.70;99.90;;;;;;5029269;28;20452;-55
2022/03/28 11:51:23;;;;;;;9.20;3.50;;;22.70;99.90;;;;;;5031214;28;20578;-55
2022/03/28 11:53:50;;;;;;;6.30;3.70;;;22.90;99.90;;;;;;5032232;28;20483;-57
2022/03/28 11:56:24;;;;;;;9.13;4.40;;;23.00;99.90;;;;;;5031294;28;20452;-58
2022/03/28 11:58:51;;;;;;;9.83;4.43;;;23.10;99.90;;;;;;5029306;28;20432;-56
2022/03/28 12:01:20;;;;;;;6.87;3.70;;;22.80;99.90;;;;;;5030789;28;20543;-56
2022/03/28 12:03:51;;;;;;;9.63;3.90;;;22.70;99.90;;;;;;5030832;28;20458;-56
2022/03/28 12:06:29;;;;;;;9.20;5.70;;;22.70;99.90;;;;;;5029843;28;20834;-58
2022/03/28 12:08:56;;;;;;;6.20;4.00;;;23.00;99.90;;;;;;5029157;28;20472;-58
2022/03/28 12:11:24;;;;;;;8.10;3.87;;;23.10;99.90;;;;;;5027261;28;20543;-57
2022/03/28 12:13:52;;;;;;;6.43;3.63;;;23.30;99.90;;;;;;5028052;28;20903;-59
2022/03/28 12:16:21;;;;;;;6.30;4.30;;;23.30;99.90;;;;;;5030804;28;20483;-57
2022/03/28 12:18:51;;;;;;;10.93;4.27;;;23.00;99.90;;;;;;5012554;28;20812;-58
2022/03/28 12:21:19;;;;;;;9.60;4.80;;;23.20;99.90;;;;;;5012109;28;20557;-58
2022/03/28 12:23:46;;;;;;;10.83;4.57;;;22.90;99.90;;;;;;5028836;28;20452;-58
2022/03/28 12:26:12;;;;;;;8.67;5.27;;;23.10;99.90;;;;;;5029796;28;20755;-58
2022/03/28 12:28:43;;;;;;;9.30;6.47;;;23.20;99.90;;;;;;5031614;28;20551;-59
2022/03/28 12:31:10;;;;;;;7.47;4.07;;;23.20;99.90;;;;;;5030942;28;20464;-58
2022/03/28 12:33:39;;;;;;;8.13;4.30;;;23.20;99.90;;;;;;5033181;28;20887;-59
2022/03/28 12:36:08;;;;;;;10.17;3.97;;;23.30;99.90;;;;;;5033717;28;20552;-60
2022/03/28 12:38:39;;;;;;;8.40;3.80;;;23.30;99.90;;;;;;5036211;28;20452;-58
2022/03/28 12:41:11;;;;;;;8.33;5.63;;;23.40;99.90;;;;;;5034323;28;20479;-59
2022/03/28 12:43:39;;;;;;;8.20;4.33;;;23.40;99.90;;;;;;5036866;28;20542;-57
2022/03/28 12:46:08;;;;;;;6.20;4.47;;;23.40;99.90;;;;;;5034291;28;21192;-58
2022/03/28 12:48:41;;;;;;;6.73;3.50;;;23.50;99.90;;;;;;5035070;28;20816;-58
2022/03/28 12:51:09;;;;;;;5.70;3.73;;;23.40;99.90;;;;;;5016575;28;20452;-58
2022/03/28 12:53:38;;;;;;;8.10;4.87;;;23.50;99.90;;;;;;5019018;28;20460;-58
2022/03/28 12:56:16;;;;;;;6.90;3.63;;;23.30;99.90;;;;;;5034565;28;20947;-57
2022/03/28 12:58:51;;;;;;;5.30;2.07;;;23.20;99.90;;;;;;5029613;28;20837;-57
2022/03/28 13:01:23;;;;;;;6.27;3.97;;;23.20;99.90;;;;;;5033280;28;20494;-58
2022/03/28 13:03:51;;;;;;;7.47;3.27;;;23.20;99.90;;;;;;5036132;28;20930;-58
2022/03/28 13:06:21;;;;;;;4.60;2.97;;;23.00;99.90;;;;;;5034057;28;20456;-57
2022/03/28 13:08:48;;;;;;;6.97;3.60;;;22.90;99.90;;;;;;5035702;28;20448;-57
2022/03/28 13:11:21;;;;;;;5.83;3.60;;;23.00;99.90;;;;;;5033957;28;20451;-58